createdAt,value
2019-04-29T00:02:14.742Z,6.20
2019-04-29T00:04:43.139Z,6.10
2019-04-29T00:07:12.655Z,6.00
2019-04-29T00:09:41.221Z,5.90
2019-04-29T00:12:09.883Z,5.80
2019-04-29T00:14:39.966Z,5.70
2019-04-29T00:17:18.661Z,5.70
2019-04-29T00:19:48.748Z,5.60
2019-04-29T00:22:17.260Z,5.70
2019-04-29T00:24:46.150Z,5.70
2019-04-29T00:27:14.841Z,5.70
2019-04-29T00:29:43.354Z,5.70
2019-04-29T00:32:12.040Z,5.80
2019-04-29T00:34:40.617Z,5.80
2019-04-29T00:37:13.619Z,5.80
2019-04-29T00:39:43.746Z,5.70
2019-04-29T00:42:30.526Z,5.70
2019-04-29T00:44:59.136Z,5.70
2019-04-29T00:47:27.568Z,5.60
2019-04-29T00:49:56.016Z,5.50
2019-04-29T00:52:24.451Z,5.50
2019-04-29T00:54:54.565Z,5.50
2019-04-29T00:57:23.080Z,5.40
2019-04-29T00:59:51.515Z,5.40
2019-04-29T01:02:19.939Z,5.40
2019-04-29T01:04:48.388Z,5.40
2019-04-29T01:07:16.833Z,5.40
2019-04-29T01:09:45.557Z,5.40
2019-04-29T01:12:13.952Z,5.40
2019-04-29T01:14:42.455Z,5.30
2019-04-29T01:17:10.968Z,5.30
2019-04-29T01:19:39.539Z,5.30
2019-04-29T01:22:07.980Z,5.10
2019-04-29T01:24:36.473Z,4.90
2019-04-29T01:27:06.675Z,4.80
2019-04-29T01:29:35.565Z,4.70
2019-04-29T01:32:05.713Z,4.70
2019-04-29T01:34:35.875Z,4.70
2019-04-29T01:37:04.468Z,4.60
2019-04-29T01:39:38.665Z,4.60
2019-04-29T01:42:11.585Z,4.60
2019-04-29T01:44:40.099Z,4.70
2019-04-29T01:47:08.487Z,4.60
2019-04-29T01:49:36.895Z,4.50
2019-04-29T01:52:05.355Z,4.40
2019-04-29T01:54:33.753Z,4.40
2019-04-29T01:57:02.147Z,4.30
2019-04-29T01:59:30.554Z,4.20
2019-04-29T02:01:58.944Z,4.20
2019-04-29T02:04:27.365Z,4.10
2019-04-29T02:06:55.770Z,4.00
2019-04-29T02:09:25.822Z,4.00
2019-04-29T02:11:54.213Z,3.90
2019-04-29T02:14:22.628Z,3.90
2019-04-29T02:16:51.006Z,3.90
2019-04-29T02:19:19.414Z,4.00
2019-04-29T02:22:05.676Z,4.00
2019-04-29T02:24:34.944Z,4.00
2019-04-29T02:27:05.704Z,4.00
2019-04-29T02:29:33.472Z,4.00
2019-04-29T02:32:01.862Z,4.10
2019-04-29T02:34:30.269Z,4.10
2019-04-29T02:37:00.526Z,4.10
2019-04-29T02:39:33.319Z,4.10
2019-04-29T02:42:19.912Z,4.10
2019-04-29T02:44:48.862Z,4.10
2019-04-29T02:47:17.247Z,4.10
2019-04-29T02:49:45.677Z,4.00
2019-04-29T02:52:14.147Z,4.00
2019-04-29T02:54:42.818Z,4.00
2019-04-29T02:57:12.870Z,4.00
2019-04-29T02:59:57.237Z,4.10
2019-04-29T03:02:35.867Z,4.00
2019-04-29T03:05:06.054Z,4.00
2019-04-29T03:07:34.454Z,4.00
2019-04-29T03:10:02.936Z,4.00
2019-04-29T03:12:31.900Z,4.00
2019-04-29T03:15:00.321Z,4.00
2019-04-29T03:17:28.801Z,4.00
2019-04-29T03:20:05.911Z,4.00
2019-04-29T03:22:34.728Z,4.00
2019-04-29T03:25:03.415Z,4.10
2019-04-29T03:27:31.805Z,4.10
2019-04-29T03:30:08.814Z,4.10
2019-04-29T03:32:37.273Z,4.00
2019-04-29T03:35:09.107Z,4.00
2019-04-29T03:37:37.628Z,4.00
2019-04-29T03:40:06.296Z,3.90
2019-04-29T03:42:34.692Z,3.80
2019-04-29T03:45:03.837Z,3.80
2019-04-29T03:47:32.237Z,3.80
2019-04-29T03:50:00.659Z,3.80
2019-04-29T03:52:29.052Z,3.80
2019-04-29T03:54:57.476Z,3.70
2019-04-29T03:57:25.888Z,3.60
2019-04-29T03:59:56.988Z,3.60
2019-04-29T04:02:42.326Z,3.60
2019-04-29T04:05:27.367Z,3.50
2019-04-29T04:07:57.411Z,3.50
2019-04-29T04:10:25.820Z,3.50
2019-04-29T04:12:54.211Z,3.40
2019-04-29T04:15:22.635Z,3.40
2019-04-29T04:17:55.685Z,3.40
2019-04-29T04:20:24.350Z,3.40
2019-04-29T04:22:52.833Z,3.50
2019-04-29T04:25:21.258Z,3.50
2019-04-29T04:27:49.649Z,3.60
2019-04-29T04:30:19.557Z,3.70
2019-04-29T04:32:48.039Z,3.70
2019-04-29T04:35:16.974Z,3.80
2019-04-29T04:37:45.484Z,3.80
2019-04-29T04:40:15.933Z,3.90
2019-04-29T04:42:44.343Z,3.90
2019-04-29T04:45:12.899Z,4.00
2019-04-29T04:47:41.291Z,4.00
2019-04-29T04:50:09.713Z,4.10
2019-04-29T04:52:38.115Z,4.10
2019-04-29T04:55:07.771Z,4.20
2019-04-29T04:57:36.180Z,4.30
2019-04-29T05:00:09.348Z,4.40
2019-04-29T05:02:37.746Z,4.50
2019-04-29T05:05:06.402Z,4.60
2019-04-29T05:07:34.807Z,4.70
2019-04-29T05:10:03.291Z,4.80
2019-04-29T05:12:31.707Z,4.90
2019-04-29T05:15:00.164Z,5.00
2019-04-29T05:17:28.590Z,5.20
2019-04-29T05:19:57.007Z,5.40
2019-04-29T05:22:25.399Z,5.60
2019-04-29T05:24:53.806Z,5.60
2019-04-29T05:27:22.208Z,5.80
2019-04-29T05:29:50.614Z,6.00
2019-04-29T05:32:19.016Z,6.20
2019-04-29T05:34:49.055Z,6.20
2019-04-29T05:37:19.119Z,6.40
2019-04-29T05:39:47.591Z,6.40
2019-04-29T05:42:17.281Z,6.50
2019-04-29T05:44:53.998Z,6.60
2019-04-29T05:47:27.163Z,6.70
2019-04-29T05:50:16.715Z,6.80
2019-04-29T05:52:49.746Z,6.80
2019-04-29T05:55:17.180Z,6.90
2019-04-29T05:57:45.570Z,7.10
2019-04-29T06:00:18.651Z,7.20
2019-04-29T06:02:44.704Z,7.20
2019-04-29T06:05:13.235Z,7.30
2019-04-29T06:07:41.622Z,7.50
2019-04-29T06:10:10.774Z,7.60
2019-04-29T06:12:39.167Z,7.50
2019-04-29T06:15:07.708Z,7.70
2019-04-29T06:17:40.046Z,7.70
2019-04-29T06:20:06.314Z,7.90
2019-04-29T06:22:37.986Z,8.10
2019-04-29T06:25:06.171Z,8.20
2019-04-29T06:27:34.853Z,8.20
2019-04-29T06:30:04.993Z,8.40
2019-04-29T06:32:33.482Z,8.60
2019-04-29T06:35:01.879Z,8.60
2019-04-29T06:37:30.267Z,8.60
2019-04-29T06:39:58.668Z,8.70
2019-04-29T06:42:27.132Z,8.90
2019-04-29T06:44:55.527Z,8.80
2019-04-29T06:47:23.914Z,8.90
2019-04-29T06:49:52.316Z,9.00
2019-04-29T06:52:20.704Z,9.10
2019-04-29T06:54:49.105Z,9.30
2019-04-29T06:57:17.502Z,9.60
2019-04-29T06:59:47.467Z,9.80
2019-04-29T07:02:16.194Z,9.90
2019-04-29T07:04:44.625Z,10.00
2019-04-29T07:07:13.035Z,10.10
2019-04-29T07:09:41.469Z,10.20
2019-04-29T07:12:12.406Z,10.30
2019-04-29T07:14:39.983Z,10.40
2019-04-29T07:17:08.365Z,10.70
2019-04-29T07:19:36.784Z,10.80
2019-04-29T07:22:05.256Z,10.80
2019-04-29T07:24:33.655Z,11.00
2019-04-29T07:27:04.302Z,11.10
2019-04-29T07:29:33.061Z,11.40
2019-04-29T07:32:04.851Z,11.60
2019-04-29T07:34:33.867Z,11.80
2019-04-29T07:37:02.119Z,12.10
2019-04-29T07:39:31.679Z,12.20
2019-04-29T07:42:03.316Z,12.40
2019-04-29T07:44:43.339Z,12.70
2019-04-29T07:47:02.933Z,12.60
2019-04-29T07:49:31.335Z,12.50
2019-04-29T07:51:59.745Z,12.40
2019-04-29T07:54:28.129Z,12.10
2019-04-29T07:56:56.543Z,12.10
2019-04-29T07:59:24.942Z,12.40
2019-04-29T08:01:55.598Z,12.40
2019-04-29T08:04:23.487Z,12.40
2019-04-29T08:06:51.895Z,12.60
2019-04-29T08:09:20.295Z,12.70
2019-04-29T08:11:48.759Z,12.70
2019-04-29T08:14:18.281Z,12.60
2019-04-29T08:16:46.696Z,12.50
2019-04-29T08:19:15.086Z,12.40
2019-04-29T08:21:45.611Z,12.50
2019-04-29T08:24:32.975Z,12.70
2019-04-29T08:27:01.379Z,12.80
2019-04-29T08:29:30.738Z,13.00
2019-04-29T08:32:02.308Z,13.00
2019-04-29T08:34:30.070Z,13.20
2019-04-29T08:36:58.478Z,13.40
2019-04-29T08:39:29.351Z,13.60
2019-04-29T08:41:58.826Z,13.40
2019-04-29T08:44:41.273Z,13.30
2019-04-29T08:47:23.670Z,13.40
2019-04-29T08:49:51.551Z,13.40
2019-04-29T08:52:19.965Z,13.20
2019-04-29T08:54:50.632Z,13.00
2019-04-29T08:57:18.515Z,13.30
2019-04-29T08:59:46.894Z,13.30
2019-04-29T09:02:15.312Z,13.30
2019-04-29T09:04:53.490Z,13.50
2019-04-29T09:07:17.393Z,13.40
2019-04-29T09:09:43.979Z,13.00
2019-04-29T09:12:12.396Z,13.20
2019-04-29T09:14:40.796Z,13.30
2019-04-29T09:17:20.218Z,13.50
2019-04-29T09:19:39.610Z,13.60
2019-04-29T09:22:09.759Z,13.60
2019-04-29T09:24:43.696Z,13.50
2019-04-29T09:27:11.606Z,13.90
2019-04-29T09:29:40.041Z,13.70
2019-04-29T09:32:08.527Z,14.00
2019-04-29T09:34:36.999Z,14.10
2019-04-29T09:37:05.544Z,14.10
2019-04-29T09:39:42.900Z,14.50
2019-04-29T09:42:13.189Z,14.60
2019-04-29T09:44:44.868Z,14.90
2019-04-29T09:47:12.708Z,15.00
2019-04-29T09:49:41.122Z,15.30
2019-04-29T09:52:09.529Z,15.10
2019-04-29T09:54:37.953Z,15.20
2019-04-29T09:57:06.373Z,15.00
2019-04-29T09:59:36.398Z,15.00
2019-04-29T10:02:26.433Z,14.80
2019-04-29T10:05:05.615Z,15.00
2019-04-29T10:07:34.094Z,15.20
2019-04-29T10:10:06.927Z,15.30
2019-04-29T10:12:32.617Z,15.60
2019-04-29T10:15:01.083Z,15.60
2019-04-29T10:17:31.149Z,15.50
2019-04-29T10:20:04.415Z,15.30
2019-04-29T10:22:33.664Z,15.40
2019-04-29T10:25:02.323Z,15.60
2019-04-29T10:27:30.758Z,15.70
2019-04-29T10:29:59.143Z,15.70
2019-04-29T10:32:27.559Z,16.00
2019-04-29T10:34:55.946Z,16.10
2019-04-29T10:37:31.385Z,16.00
2019-04-29T10:40:10.841Z,16.00
2019-04-29T10:42:34.241Z,16.10
2019-04-29T10:45:06.898Z,15.90
2019-04-29T10:47:45.582Z,15.70
2019-04-29T10:50:19.286Z,15.90
2019-04-29T10:52:47.692Z,16.10
2019-04-29T10:55:17.099Z,16.40
2019-04-29T10:57:49.775Z,16.40
2019-04-29T11:00:21.730Z,16.40
2019-04-29T11:02:49.778Z,16.60
2019-04-29T11:05:26.839Z,16.60
2019-04-29T11:08:06.285Z,16.40
2019-04-29T11:10:34.750Z,16.30
2019-04-29T11:13:03.158Z,16.00
2019-04-29T11:15:33.272Z,16.10
2019-04-29T11:18:03.641Z,16.10
2019-04-29T11:20:32.927Z,16.10
2019-04-29T11:23:21.181Z,15.50
2019-04-29T11:26:03.693Z,15.40
2019-04-29T11:28:33.740Z,15.50
2019-04-29T11:31:02.152Z,15.60
2019-04-29T11:33:35.625Z,15.70
2019-04-29T11:36:05.822Z,15.50
2019-04-29T11:38:38.171Z,15.30
2019-04-29T11:41:04.600Z,15.40
2019-04-29T11:43:33.076Z,15.70
2019-04-29T11:46:01.463Z,16.00
2019-04-29T11:48:29.934Z,16.10
2019-04-29T11:51:05.968Z,15.40
2019-04-29T11:53:34.376Z,15.60
2019-04-29T11:56:02.839Z,15.50
2019-04-29T11:58:32.886Z,15.50
2019-04-29T12:01:19.206Z,15.50
2019-04-29T12:03:51.512Z,15.60
2019-04-29T12:06:20.829Z,15.20
2019-04-29T12:08:53.326Z,15.50
2019-04-29T12:11:20.688Z,15.70
2019-04-29T12:14:06.881Z,15.80
2019-04-29T12:16:36.927Z,15.60
2019-04-29T12:19:12.966Z,15.60
2019-04-29T12:21:43.340Z,15.70
2019-04-29T12:24:11.820Z,15.90
2019-04-29T12:26:44.304Z,15.80
2019-04-29T12:29:13.651Z,15.70
2019-04-29T12:31:44.825Z,15.90
2019-04-29T12:34:13.979Z,16.10
2019-04-29T12:36:54.601Z,15.80
2019-04-29T12:39:42.797Z,15.70
2019-04-29T12:42:18.391Z,15.60
2019-04-29T12:44:51.129Z,15.60
2019-04-29T12:47:26.582Z,15.70
2019-04-29T12:49:51.304Z,15.80
2019-04-29T12:52:19.706Z,15.90
2019-04-29T12:54:48.130Z,16.00
2019-04-29T12:57:18.858Z,16.00
2019-04-29T12:59:46.647Z,16.10
2019-04-29T13:02:24.377Z,16.10
2019-04-29T13:04:57.512Z,16.20
2019-04-29T13:07:36.847Z,16.30
2019-04-29T13:10:13.659Z,16.50
2019-04-29T13:12:44.510Z,16.30
2019-04-29T13:15:33.315Z,16.60
2019-04-29T13:18:13.363Z,16.90
2019-04-29T13:20:41.612Z,16.90
2019-04-29T13:23:17.794Z,17.00
2019-04-29T13:25:39.410Z,17.20
2019-04-29T13:28:07.806Z,17.30
2019-04-29T13:30:36.356Z,17.00
2019-04-29T13:33:06.273Z,17.30
2019-04-29T13:35:35.114Z,17.10
2019-04-29T13:38:03.536Z,16.90
2019-04-29T13:40:37.256Z,16.80
2019-04-29T13:43:02.051Z,16.80
2019-04-29T13:45:32.182Z,16.60
2019-04-29T13:48:14.338Z,16.40
2019-04-29T13:50:59.347Z,16.40
2019-04-29T13:53:27.753Z,16.60
2019-04-29T13:56:11.137Z,16.60
2019-04-29T13:58:27.102Z,16.40
2019-04-29T14:01:23.664Z,16.30
2019-04-29T14:03:49.352Z,16.30
2019-04-29T14:06:18.686Z,16.00
2019-04-29T14:08:47.025Z,15.90
2019-04-29T14:11:15.445Z,15.60
2019-04-29T14:13:48.224Z,15.80
2019-04-29T14:16:14.027Z,16.10
2019-04-29T14:18:43.599Z,16.20
2019-04-29T14:21:12.574Z,16.10
2019-04-29T14:23:41.047Z,15.90
2019-04-29T14:26:09.450Z,15.80
2019-04-29T14:28:37.842Z,15.60
2019-04-29T14:31:06.250Z,15.50
2019-04-29T14:33:36.282Z,15.50
2019-04-29T14:36:06.394Z,15.80
2019-04-29T14:38:36.035Z,15.70
2019-04-29T14:41:05.054Z,15.60
2019-04-29T14:43:50.564Z,15.70
2019-04-29T14:46:18.992Z,15.60
2019-04-29T14:48:55.158Z,15.30
2019-04-29T14:51:23.648Z,15.00
2019-04-29T14:53:56.584Z,14.70
2019-04-29T14:56:22.198Z,14.40
2019-04-29T14:58:50.582Z,14.10
2019-04-29T15:01:26.489Z,13.90
2019-04-29T15:04:16.886Z,13.70
2019-04-29T15:06:32.538Z,13.40
2019-04-29T15:09:00.926Z,13.30
2019-04-29T15:11:32.409Z,13.00
2019-04-29T15:14:06.123Z,12.60
2019-04-29T15:16:39.337Z,12.30
2019-04-29T15:19:25.763Z,12.10
2019-04-29T15:21:58.919Z,12.00
2019-04-29T15:24:32.322Z,11.90
2019-04-29T15:26:57.623Z,11.80
2019-04-29T15:29:26.018Z,11.80
2019-04-29T15:31:54.435Z,11.90
2019-04-29T15:34:22.837Z,11.90
2019-04-29T15:36:51.256Z,12.10
2019-04-29T15:39:19.778Z,12.30
2019-04-29T15:41:48.386Z,12.60
2019-04-29T15:44:20.301Z,12.90
2019-04-29T15:46:49.002Z,13.10
2019-04-29T15:49:20.041Z,13.20
2019-04-29T15:51:49.323Z,13.60
2019-04-29T15:54:17.652Z,13.80
2019-04-29T15:56:46.075Z,13.90
2019-04-29T15:59:14.647Z,14.00
2019-04-29T16:01:43.392Z,13.90
2019-04-29T16:04:13.581Z,13.90
2019-04-29T16:06:46.581Z,14.00
2019-04-29T16:09:16.619Z,14.10
2019-04-29T16:11:55.684Z,14.00
2019-04-29T16:14:24.934Z,13.90
2019-04-29T16:16:53.334Z,13.70
2019-04-29T16:19:21.735Z,13.60
2019-04-29T16:21:50.150Z,13.50
2019-04-29T16:24:26.254Z,13.40
2019-04-29T16:26:53.531Z,13.30
2019-04-29T16:29:18.822Z,13.10
2019-04-29T16:31:47.206Z,13.10
2019-04-29T16:34:15.602Z,13.10
2019-04-29T16:39:14.227Z,13.20
2019-04-29T16:41:58.026Z,13.00
2019-04-29T16:44:35.548Z,12.90
2019-04-29T16:46:53.716Z,12.70
2019-04-29T16:49:22.451Z,12.40
2019-04-29T16:51:53.692Z,12.50
2019-04-29T16:54:27.895Z,12.50
2019-04-29T16:56:51.208Z,12.40
2019-04-29T16:59:20.528Z,12.40
2019-04-29T17:01:49.668Z,12.30
2019-04-29T17:04:18.079Z,12.30
2019-04-29T17:07:10.708Z,12.20
2019-04-29T17:09:36.498Z,12.20
2019-04-29T17:12:05.249Z,12.10
2019-04-29T17:15:01.242Z,12.10
2019-04-29T17:17:07.828Z,12.10
2019-04-29T17:19:36.367Z,12.10
2019-04-29T17:22:25.074Z,12.00
2019-04-29T17:24:36.625Z,12.00
2019-04-29T17:27:15.815Z,12.00
2019-04-29T17:30:03.566Z,12.10
2019-04-29T17:32:48.493Z,12.00
2019-04-29T17:35:21.069Z,11.90
2019-04-29T17:37:45.035Z,11.90
2019-04-29T17:40:15.246Z,11.90
2019-04-29T17:42:45.295Z,12.00
2019-04-29T17:45:26.987Z,11.90
2019-04-29T17:48:03.866Z,11.80
2019-04-29T17:50:39.140Z,11.70
2019-04-29T17:53:08.604Z,11.60
2019-04-29T17:55:40.830Z,11.70
2019-04-29T17:58:10.415Z,11.60
2019-04-29T18:00:56.211Z,11.50
2019-04-29T18:03:27.252Z,11.40
2019-04-29T18:06:17.247Z,11.40
2019-04-29T18:08:55.025Z,11.30
2019-04-29T18:11:25.096Z,11.10
2019-04-29T18:13:57.043Z,11.10
2019-04-29T18:16:28.015Z,11.00
2019-04-29T18:19:01.784Z,10.80
2019-04-29T18:21:48.222Z,10.80
2019-04-29T18:24:18.254Z,10.80
2019-04-29T18:26:52.776Z,10.70
2019-04-29T18:29:21.188Z,10.80
2019-04-29T18:31:49.589Z,10.70
2019-04-29T18:34:18.000Z,10.60
2019-04-29T18:36:46.432Z,10.50
2019-04-29T18:39:28.545Z,10.50
2019-04-29T18:41:58.725Z,10.40
2019-04-29T18:44:26.223Z,10.40
2019-04-29T18:46:57.173Z,10.50
2019-04-29T18:49:25.838Z,10.40
2019-04-29T18:51:57.907Z,10.40
2019-04-29T18:54:25.422Z,10.30
2019-04-29T18:56:55.914Z,10.30
2019-04-29T18:59:32.567Z,10.30
2019-04-29T19:01:54.901Z,10.30
2019-04-29T19:04:30.718Z,10.30
2019-04-29T19:07:02.305Z,10.20
2019-04-29T19:09:32.324Z,10.30
2019-04-29T19:12:01.328Z,10.40
2019-04-29T19:14:29.784Z,10.40
2019-04-29T19:17:01.222Z,10.40
2019-04-29T19:19:30.733Z,10.40
2019-04-29T19:22:00.789Z,10.40
2019-04-29T19:24:31.550Z,10.40
2019-04-29T19:27:00.761Z,10.40
2019-04-29T19:29:29.300Z,10.40
2019-04-29T19:31:57.690Z,10.40
2019-04-29T19:34:26.151Z,10.40
2019-04-29T19:36:55.739Z,10.40
2019-04-29T19:39:25.489Z,10.30
2019-04-29T19:41:55.726Z,10.30
2019-04-29T19:44:26.528Z,10.30
2019-04-29T19:46:56.932Z,10.20
2019-04-29T19:49:25.812Z,10.20
2019-04-29T19:51:55.525Z,10.20
2019-04-29T19:54:28.462Z,10.30
2019-04-29T19:57:03.081Z,10.30
2019-04-29T19:59:26.112Z,10.30
2019-04-29T20:02:02.137Z,10.30
2019-04-29T20:04:35.351Z,10.30
2019-04-29T20:07:09.390Z,10.30
2019-04-29T20:09:37.287Z,10.30
2019-04-29T20:12:12.141Z,10.30
2019-04-29T20:14:36.980Z,10.30
2019-04-29T20:17:12.809Z,10.30
2019-04-29T20:19:41.405Z,10.20
2019-04-29T20:22:10.056Z,10.10
2019-04-29T20:24:38.763Z,10.00
2019-04-29T20:27:08.049Z,10.00
2019-04-29T20:29:38.602Z,10.00
2019-04-29T20:32:07.924Z,9.90
2019-04-29T20:34:36.693Z,10.00
2019-04-29T20:37:05.950Z,9.90
2019-04-29T20:39:35.733Z,10.00
2019-04-29T20:42:06.474Z,10.00
2019-04-29T20:44:36.584Z,10.00
2019-04-29T20:47:19.381Z,9.90
2019-04-29T20:49:38.406Z,10.00
2019-04-29T20:52:07.132Z,10.00
2019-04-29T20:54:36.259Z,10.00
2019-04-29T20:57:12.060Z,9.90
2019-04-29T20:59:35.871Z,9.90
2019-04-29T21:02:12.734Z,9.90
2019-04-29T21:04:45.827Z,9.90
2019-04-29T21:07:07.090Z,9.90
2019-04-29T21:09:35.790Z,9.90
2019-04-29T21:12:22.355Z,10.00
2019-04-29T21:14:59.524Z,9.90
2019-04-29T21:17:31.637Z,9.90
2019-04-29T21:19:58.306Z,10.00
2019-04-29T21:22:26.714Z,10.00
2019-04-29T21:24:55.268Z,10.10
2019-04-29T21:27:25.891Z,10.00
2019-04-29T21:29:54.253Z,10.10
2019-04-29T21:32:25.626Z,10.10
2019-04-29T21:35:16.900Z,10.10
2019-04-29T21:37:48.101Z,10.00
2019-04-29T21:40:35.052Z,10.10
2019-04-29T21:43:08.110Z,10.10
2019-04-29T21:45:39.837Z,10.10
2019-04-29T21:48:05.794Z,10.20
2019-04-29T21:50:38.057Z,10.30
2019-04-29T21:53:05.079Z,10.30
2019-04-29T21:55:33.602Z,10.30
2019-04-29T21:58:02.013Z,10.40
2019-04-29T22:00:30.761Z,10.40
2019-04-29T22:02:59.253Z,10.40
2019-04-29T22:05:27.660Z,10.40
2019-04-29T22:07:56.144Z,10.40
2019-04-29T22:10:28.954Z,10.30
2019-04-29T22:13:00.990Z,10.40
2019-04-29T22:15:32.438Z,10.50
2019-04-29T22:18:01.299Z,10.40
2019-04-29T22:20:26.967Z,10.40
2019-04-29T22:22:55.896Z,10.50
2019-04-29T22:25:25.710Z,10.40
2019-04-29T22:27:55.406Z,10.40
2019-04-29T22:30:24.062Z,10.40
2019-04-29T22:32:58.050Z,10.40
2019-04-29T22:35:22.676Z,10.40
2019-04-29T22:37:51.100Z,10.40
2019-04-29T22:40:19.528Z,10.40
2019-04-29T22:42:49.574Z,10.40
2019-04-29T22:45:17.969Z,10.30
2019-04-29T22:47:46.390Z,10.30
2019-04-29T22:50:15.465Z,10.30
2019-04-29T22:52:45.334Z,10.30
2019-04-29T22:55:15.537Z,10.20
2019-04-29T22:57:44.923Z,10.20
2019-04-29T23:00:16.115Z,10.10
2019-04-29T23:02:44.545Z,10.10
2019-04-29T23:05:13.019Z,10.10
2019-04-29T23:07:41.429Z,10.10
2019-04-29T23:10:10.089Z,10.10
2019-04-29T23:12:38.774Z,10.10
2019-04-29T23:15:07.316Z,9.90
2019-04-29T23:17:35.739Z,10.00
2019-04-29T23:20:13.124Z,10.10
2019-04-29T23:22:58.178Z,10.10
2019-04-29T23:25:29.922Z,10.10
2019-04-29T23:27:58.561Z,10.20
2019-04-29T23:30:28.095Z,10.20
2019-04-29T23:32:56.888Z,10.30
2019-04-29T23:35:25.506Z,10.20
2019-04-29T23:37:58.849Z,10.30
2019-04-29T23:40:24.043Z,10.30
2019-04-29T23:42:52.485Z,10.20
2019-04-29T23:45:22.342Z,10.20
2019-04-29T23:47:50.872Z,10.20
2019-04-29T23:50:20.213Z,10.00
2019-04-29T23:52:51.789Z,10.00
2019-04-29T23:55:23.398Z,10.00
2019-04-29T23:58:02.917Z,10.10
